sensor_id;sensor_type;location;lat;lon;timestamp;P1;durP1;ratioP1;P2;durP2;ratioP2
10365;SDS011;5229;41.820;23.490;2022-12-10T00:02:10;3.53;;;2.10;;
10365;SDS011;5229;41.820;23.490;2022-12-10T00:04:37;2.53;;;2.10;;
10365;SDS011;5229;41.820;23.490;2022-12-10T00:07:03;3.93;;;2.27;;
10365;SDS011;5229;41.820;23.490;2022-12-10T00:09:30;3.03;;;2.40;;
10365;SDS011;5229;41.820;23.490;2022-12-10T00:11:57;6.83;;;2.50;;
10365;SDS011;5229;41.820;23.490;2022-12-10T00:14:24;5.17;;;2.47;;
10365;SDS011;5229;41.820;23.490;2022-12-10T00:16:52;9.80;;;3.23;;
10365;SDS011;5229;41.820;23.490;2022-12-10T00:19:19;5.67;;;3.00;;
10365;SDS011;5229;41.820;23.490;2022-12-10T00:21:46;3.80;;;2.97;;
10365;SDS011;5229;41.820;23.490;2022-12-10T00:24:13;5.53;;;2.67;;
10365;SDS011;5229;41.820;23.490;2022-12-10T00:26:40;7.27;;;3.13;;
10365;SDS011;5229;41.820;23.490;2022-12-10T00:29:07;5.47;;;3.10;;
10365;SDS011;5229;41.820;23.490;2022-12-10T00:31:37;5.57;;;2.93;;
10365;SDS011;5229;41.820;23.490;2022-12-10T00:34:07;3.03;;;2.50;;
10365;SDS011;5229;41.820;23.490;2022-12-10T00:36:37;3.17;;;2.87;;
10365;SDS011;5229;41.820;23.490;2022-12-10T00:39:07;2.60;;;2.40;;
10365;SDS011;5229;41.820;23.490;2022-12-10T00:41:35;2.97;;;2.27;;
10365;SDS011;5229;41.820;23.490;2022-12-10T00:44:02;5.87;;;2.90;;
10365;SDS011;5229;41.820;23.490;2022-12-10T00:46:29;4.10;;;2.70;;
10365;SDS011;5229;41.820;23.490;2022-12-10T00:48:55;4.27;;;3.10;;
10365;SDS011;5229;41.820;23.490;2022-12-10T00:51:25;5.50;;;3.00;;
10365;SDS011;5229;41.820;23.490;2022-12-10T00:53:54;4.77;;;2.67;;
10365;SDS011;5229;41.820;23.490;2022-12-10T00:56:23;4.80;;;2.80;;
10365;SDS011;5229;41.820;23.490;2022-12-10T00:58:51;8.57;;;3.10;;
10365;SDS011;5229;41.820;23.490;2022-12-10T01:01:19;3.60;;;2.57;;
10365;SDS011;5229;41.820;23.490;2022-12-10T01:03:48;3.33;;;2.40;;
10365;SDS011;5229;41.820;23.490;2022-12-10T01:06:17;5.03;;;2.90;;
10365;SDS011;5229;41.820;23.490;2022-12-10T01:08:46;4.33;;;2.90;;
10365;SDS011;5229;41.820;23.490;2022-12-10T01:11:15;5.03;;;2.70;;
10365;SDS011;5229;41.820;23.490;2022-12-10T01:13:43;2.90;;;2.60;;
10365;SDS011;5229;41.820;23.490;2022-12-10T01:16:11;4.30;;;2.40;;
10365;SDS011;5229;41.820;23.490;2022-12-10T01:18:39;7.90;;;4.10;;
10365;SDS011;5229;41.820;23.490;2022-12-10T01:21:07;5.00;;;3.20;;
10365;SDS011;5229;41.820;23.490;2022-12-10T01:23:37;3.97;;;2.70;;
10365;SDS011;5229;41.820;23.490;2022-12-10T01:26:08;2.70;;;2.27;;
10365;SDS011;5229;41.820;23.490;2022-12-10T01:28:36;3.63;;;2.27;;
10365;SDS011;5229;41.820;23.490;2022-12-10T01:31:07;2.50;;;2.30;;
10365;SDS011;5229;41.820;23.490;2022-12-10T01:33:36;2.43;;;2.23;;
10365;SDS011;5229;41.820;23.490;2022-12-10T01:36:04;3.23;;;2.40;;
10365;SDS011;5229;41.820;23.490;2022-12-10T01:38:32;3.93;;;2.67;;
10365;SDS011;5229;41.820;23.490;2022-12-10T01:40:59;7.30;;;2.80;;
10365;SDS011;5229;41.820;23.490;2022-12-10T01:43:29;4.33;;;2.80;;
10365;SDS011;5229;41.820;23.490;2022-12-10T01:46:14;3.63;;;2.43;;
10365;SDS011;5229;41.820;23.490;2022-12-10T01:48:41;3.03;;;2.47;;
10365;SDS011;5229;41.820;23.490;2022-12-10T01:51:08;3.87;;;2.30;;
10365;SDS011;5229;41.820;23.490;2022-12-10T01:53:36;2.90;;;2.00;;
10365;SDS011;5229;41.820;23.490;2022-12-10T01:56:03;6.87;;;2.67;;
10365;SDS011;5229;41.820;23.490;2022-12-10T01:58:31;4.10;;;2.20;;
10365;SDS011;5229;41.820;23.490;2022-12-10T02:01:01;4.33;;;2.20;;
10365;SDS011;5229;41.820;23.490;2022-12-10T02:03:34;3.37;;;2.50;;
10365;SDS011;5229;41.820;23.490;2022-12-10T02:06:11;4.40;;;2.57;;
10365;SDS011;5229;41.820;23.490;2022-12-10T02:08:54;2.73;;;2.33;;
10365;SDS011;5229;41.820;23.490;2022-12-10T02:11:29;3.90;;;2.10;;
10365;SDS011;5229;41.820;23.490;2022-12-10T02:14:05;2.67;;;2.20;;
10365;SDS011;5229;41.820;23.490;2022-12-10T02:16:40;4.10;;;2.20;;
10365;SDS011;5229;41.820;23.490;2022-12-10T02:19:11;3.17;;;1.90;;
10365;SDS011;5229;41.820;23.490;2022-12-10T02:21:46;4.80;;;1.90;;
10365;SDS011;5229;41.820;23.490;2022-12-10T02:24:15;2.20;;;1.77;;
10365;SDS011;5229;41.820;23.490;2022-12-10T02:26:51;4.03;;;2.17;;
10365;SDS011;5229;41.820;23.490;2022-12-10T02:29:24;4.63;;;2.30;;
10365;SDS011;5229;41.820;23.490;2022-12-10T02:31:53;1.77;;;1.50;;
10365;SDS011;5229;41.820;23.490;2022-12-10T02:34:23;2.73;;;2.03;;
10365;SDS011;5229;41.820;23.490;2022-12-10T02:36:55;2.90;;;1.80;;
10365;SDS011;5229;41.820;23.490;2022-12-10T02:39:28;3.40;;;2.00;;
10365;SDS011;5229;41.820;23.490;2022-12-10T02:42:00;3.27;;;1.90;;
10365;SDS011;5229;41.820;23.490;2022-12-10T02:44:31;2.13;;;1.70;;
10365;SDS011;5229;41.820;23.490;2022-12-10T02:47:02;2.60;;;2.30;;
10365;SDS011;5229;41.820;23.490;2022-12-10T02:49:31;3.17;;;2.23;;
10365;SDS011;5229;41.820;23.490;2022-12-10T02:51:59;2.23;;;2.03;;
10365;SDS011;5229;41.820;23.490;2022-12-10T02:54:34;3.60;;;2.07;;
10365;SDS011;5229;41.820;23.490;2022-12-10T02:57:18;3.47;;;1.80;;
10365;SDS011;5229;41.820;23.490;2022-12-10T03:00:04;1.63;;;1.40;;
10365;SDS011;5229;41.820;23.490;2022-12-10T03:02:36;2.57;;;1.63;;
10365;SDS011;5229;41.820;23.490;2022-12-10T03:05:12;4.50;;;2.10;;
10365;SDS011;5229;41.820;23.490;2022-12-10T03:07:45;2.83;;;1.70;;
10365;SDS011;5229;41.820;23.490;2022-12-10T03:10:18;2.33;;;1.50;;
10365;SDS011;5229;41.820;23.490;2022-12-10T03:12:51;5.83;;;2.20;;
10365;SDS011;5229;41.820;23.490;2022-12-10T03:15:25;2.13;;;1.80;;
10365;SDS011;5229;41.820;23.490;2022-12-10T03:17:54;3.17;;;1.37;;
10365;SDS011;5229;41.820;23.490;2022-12-10T03:20:22;3.47;;;1.70;;
10365;SDS011;5229;41.820;23.490;2022-12-10T03:22:51;2.93;;;1.57;;
10365;SDS011;5229;41.820;23.490;2022-12-10T03:25:19;4.60;;;1.73;;
10365;SDS011;5229;41.820;23.490;2022-12-10T03:27:49;1.43;;;1.33;;
10365;SDS011;5229;41.820;23.490;2022-12-10T03:30:20;2.40;;;1.70;;
10365;SDS011;5229;41.820;23.490;2022-12-10T03:32:48;1.87;;;1.57;;
10365;SDS011;5229;41.820;23.490;2022-12-10T03:35:16;2.30;;;1.47;;
10365;SDS011;5229;41.820;23.490;2022-12-10T03:37:45;3.10;;;1.60;;
10365;SDS011;5229;41.820;23.490;2022-12-10T03:40:14;4.00;;;1.73;;
10365;SDS011;5229;41.820;23.490;2022-12-10T03:42:44;2.40;;;1.70;;
10365;SDS011;5229;41.820;23.490;2022-12-10T03:45:10;3.10;;;1.50;;
10365;SDS011;5229;41.820;23.490;2022-12-10T03:47:39;4.43;;;1.93;;
10365;SDS011;5229;41.820;23.490;2022-12-10T03:50:08;2.00;;;1.47;;
10365;SDS011;5229;41.820;23.490;2022-12-10T03:52:35;1.67;;;1.50;;
10365;SDS011;5229;41.820;23.490;2022-12-10T03:55:02;1.73;;;1.30;;
10365;SDS011;5229;41.820;23.490;2022-12-10T03:57:29;1.60;;;1.20;;
10365;SDS011;5229;41.820;23.490;2022-12-10T03:59:56;1.80;;;1.30;;
10365;SDS011;5229;41.820;23.490;2022-12-10T04:02:23;3.83;;;1.57;;
10365;SDS011;5229;41.820;23.490;2022-12-10T04:04:49;3.13;;;1.40;;
10365;SDS011;5229;41.820;23.490;2022-12-10T04:07:18;2.20;;;1.40;;
10365;SDS011;5229;41.820;23.490;2022-12-10T04:09:44;3.07;;;1.57;;
10365;SDS011;5229;41.820;23.490;2022-12-10T04:12:11;3.87;;;1.40;;
10365;SDS011;5229;41.820;23.490;2022-12-10T04:14:38;2.13;;;1.80;;
10365;SDS011;5229;41.820;23.490;2022-12-10T04:17:22;1.50;;;1.40;;
10365;SDS011;5229;41.820;23.490;2022-12-10T04:19:49;1.70;;;1.30;;
10365;SDS011;5229;41.820;23.490;2022-12-10T04:22:17;2.70;;;1.40;;
10365;SDS011;5229;41.820;23.490;2022-12-10T04:25:02;3.40;;;1.40;;
10365;SDS011;5229;41.820;23.490;2022-12-10T04:27:45;2.37;;;1.87;;
10365;SDS011;5229;41.820;23.490;2022-12-10T04:30:12;2.83;;;1.77;;
10365;SDS011;5229;41.820;23.490;2022-12-10T04:32:39;1.70;;;1.60;;
10365;SDS011;5229;41.820;23.490;2022-12-10T04:35:06;3.13;;;1.53;;
10365;SDS011;5229;41.820;23.490;2022-12-10T04:37:35;2.27;;;1.73;;
10365;SDS011;5229;41.820;23.490;2022-12-10T04:40:03;1.93;;;1.40;;
10365;SDS011;5229;41.820;23.490;2022-12-10T04:42:30;5.93;;;1.70;;
10365;SDS011;5229;41.820;23.490;2022-12-10T04:44:57;2.13;;;1.20;;
10365;SDS011;5229;41.820;23.490;2022-12-10T04:47:24;1.23;;;1.07;;
10365;SDS011;5229;41.820;23.490;2022-12-10T04:49:50;1.47;;;1.07;;
10365;SDS011;5229;41.820;23.490;2022-12-10T04:52:18;2.30;;;1.33;;
10365;SDS011;5229;41.820;23.490;2022-12-10T04:54:46;2.57;;;1.27;;
10365;SDS011;5229;41.820;23.490;2022-12-10T04:57:13;2.77;;;1.50;;
10365;SDS011;5229;41.820;23.490;2022-12-10T04:59:40;2.40;;;1.67;;
10365;SDS011;5229;41.820;23.490;2022-12-10T05:02:07;1.80;;;1.67;;
10365;SDS011;5229;41.820;23.490;2022-12-10T05:04:34;1.57;;;1.47;;
10365;SDS011;5229;41.820;23.490;2022-12-10T05:07:00;3.67;;;1.97;;
10365;SDS011;5229;41.820;23.490;2022-12-10T05:09:27;1.73;;;1.43;;
10365;SDS011;5229;41.820;23.490;2022-12-10T05:11:55;2.07;;;1.70;;
10365;SDS011;5229;41.820;23.490;2022-12-10T05:14:23;2.80;;;1.80;;
10365;SDS011;5229;41.820;23.490;2022-12-10T05:16:51;2.03;;;1.73;;
10365;SDS011;5229;41.820;23.490;2022-12-10T05:19:18;3.23;;;2.20;;
10365;SDS011;5229;41.820;23.490;2022-12-10T05:21:46;2.60;;;1.80;;
10365;SDS011;5229;41.820;23.490;2022-12-10T05:24:31;3.43;;;1.90;;
10365;SDS011;5229;41.820;23.490;2022-12-10T05:26:59;1.67;;;1.30;;
10365;SDS011;5229;41.820;23.490;2022-12-10T05:29:26;2.53;;;1.70;;
10365;SDS011;5229;41.820;23.490;2022-12-10T05:31:53;2.40;;;1.70;;
10365;SDS011;5229;41.820;23.490;2022-12-10T05:34:20;3.00;;;1.77;;
10365;SDS011;5229;41.820;23.490;2022-12-10T05:36:47;1.83;;;1.50;;
10365;SDS011;5229;41.820;23.490;2022-12-10T05:39:14;3.43;;;1.87;;
10365;SDS011;5229;41.820;23.490;2022-12-10T05:41:41;3.40;;;1.50;;
10365;SDS011;5229;41.820;23.490;2022-12-10T05:44:10;1.57;;;1.43;;
10365;SDS011;5229;41.820;23.490;2022-12-10T05:46:37;2.77;;;2.00;;
10365;SDS011;5229;41.820;23.490;2022-12-10T05:49:04;4.83;;;3.53;;
10365;SDS011;5229;41.820;23.490;2022-12-10T05:51:33;2.80;;;1.70;;
10365;SDS011;5229;41.820;23.490;2022-12-10T05:54:02;1.53;;;1.37;;
10365;SDS011;5229;41.820;23.490;2022-12-10T05:56:30;1.37;;;1.23;;
10365;SDS011;5229;41.820;23.490;2022-12-10T05:58:58;2.10;;;1.53;;
10365;SDS011;5229;41.820;23.490;2022-12-10T06:01:30;2.37;;;1.30;;
10365;SDS011;5229;41.820;23.490;2022-12-10T06:03:58;2.37;;;1.47;;
10365;SDS011;5229;41.820;23.490;2022-12-10T06:06:27;6.97;;;4.90;;
10365;SDS011;5229;41.820;23.490;2022-12-10T06:08:55;2.30;;;1.80;;
10365;SDS011;5229;41.820;23.490;2022-12-10T06:11:23;1.93;;;1.73;;
10365;SDS011;5229;41.820;23.490;2022-12-10T06:13:51;1.50;;;1.37;;
10365;SDS011;5229;41.820;23.490;2022-12-10T06:16:19;1.43;;;1.20;;
10365;SDS011;5229;41.820;23.490;2022-12-10T06:18:48;4.07;;;1.40;;
10365;SDS011;5229;41.820;23.490;2022-12-10T06:21:15;2.10;;;1.33;;
10365;SDS011;5229;41.820;23.490;2022-12-10T06:23:43;1.30;;;1.00;;
10365;SDS011;5229;41.820;23.490;2022-12-10T06:26:11;3.80;;;1.43;;
10365;SDS011;5229;41.820;23.490;2022-12-10T06:28:39;1.00;;;0.90;;
10365;SDS011;5229;41.820;23.490;2022-12-10T06:31:06;2.50;;;1.37;;
10365;SDS011;5229;41.820;23.490;2022-12-10T06:33:33;2.73;;;1.40;;
10365;SDS011;5229;41.820;23.490;2022-12-10T06:36:04;2.47;;;1.90;;
10365;SDS011;5229;41.820;23.490;2022-12-10T06:38:31;2.50;;;1.67;;
10365;SDS011;5229;41.820;23.490;2022-12-10T06:40:59;2.03;;;1.30;;
10365;SDS011;5229;41.820;23.490;2022-12-10T06:43:27;2.07;;;1.20;;
10365;SDS011;5229;41.820;23.490;2022-12-10T06:45:55;2.97;;;1.43;;
10365;SDS011;5229;41.820;23.490;2022-12-10T06:48:21;2.73;;;1.40;;
10365;SDS011;5229;41.820;23.490;2022-12-10T06:50:48;2.10;;;1.23;;
10365;SDS011;5229;41.820;23.490;2022-12-10T06:53:17;1.07;;;1.00;;
10365;SDS011;5229;41.820;23.490;2022-12-10T06:55:44;1.23;;;1.13;;
10365;SDS011;5229;41.820;23.490;2022-12-10T06:58:11;2.10;;;1.17;;
10365;SDS011;5229;41.820;23.490;2022-12-10T07:00:38;2.80;;;1.20;;
10365;SDS011;5229;41.820;23.490;2022-12-10T07:03:05;2.53;;;1.30;;
10365;SDS011;5229;41.820;23.490;2022-12-10T07:05:32;1.40;;;1.20;;
10365;SDS011;5229;41.820;23.490;2022-12-10T07:07:58;3.30;;;1.30;;
10365;SDS011;5229;41.820;23.490;2022-12-10T07:10:26;1.47;;;1.37;;
10365;SDS011;5229;41.820;23.490;2022-12-10T07:12:53;1.20;;;1.07;;
10365;SDS011;5229;41.820;23.490;2022-12-10T07:15:20;1.10;;;0.80;;
10365;SDS011;5229;41.820;23.490;2022-12-10T07:17:48;2.27;;;0.97;;
10365;SDS011;5229;41.820;23.490;2022-12-10T07:20:17;1.00;;;0.90;;
10365;SDS011;5229;41.820;23.490;2022-12-10T07:22:44;2.10;;;1.23;;
10365;SDS011;5229;41.820;23.490;2022-12-10T07:25:10;1.40;;;1.30;;
10365;SDS011;5229;41.820;23.490;2022-12-10T07:27:38;3.00;;;1.20;;
10365;SDS011;5229;41.820;23.490;2022-12-10T07:30:06;3.30;;;1.63;;
10365;SDS011;5229;41.820;23.490;2022-12-10T07:32:33;2.67;;;1.57;;
10365;SDS011;5229;41.820;23.490;2022-12-10T07:35:00;1.00;;;1.00;;
10365;SDS011;5229;41.820;23.490;2022-12-10T07:37:27;2.30;;;1.40;;
10365;SDS011;5229;41.820;23.490;2022-12-10T07:39:54;1.53;;;1.40;;
10365;SDS011;5229;41.820;23.490;2022-12-10T07:42:20;2.67;;;1.40;;
10365;SDS011;5229;41.820;23.490;2022-12-10T07:44:49;2.50;;;1.90;;
10365;SDS011;5229;41.820;23.490;2022-12-10T07:47:16;3.30;;;1.70;;
10365;SDS011;5229;41.820;23.490;2022-12-10T07:49:42;1.60;;;1.30;;
10365;SDS011;5229;41.820;23.490;2022-12-10T07:52:09;2.07;;;1.10;;
10365;SDS011;5229;41.820;23.490;2022-12-10T07:54:36;1.40;;;1.17;;
10365;SDS011;5229;41.820;23.490;2022-12-10T07:57:03;3.10;;;1.30;;
10365;SDS011;5229;41.820;23.490;2022-12-10T07:59:30;1.47;;;1.10;;
10365;SDS011;5229;41.820;23.490;2022-12-10T08:02:00;1.37;;;1.10;;
10365;SDS011;5229;41.820;23.490;2022-12-10T08:04:27;2.10;;;0.97;;
10365;SDS011;5229;41.820;23.490;2022-12-10T08:06:55;1.00;;;0.90;;
10365;SDS011;5229;41.820;23.490;2022-12-10T08:09:22;2.20;;;1.00;;
10365;SDS011;5229;41.820;23.490;2022-12-10T08:11:49;1.17;;;1.10;;
10365;SDS011;5229;41.820;23.490;2022-12-10T08:14:16;2.20;;;1.00;;
10365;SDS011;5229;41.820;23.490;2022-12-10T08:16:42;1.20;;;1.10;;
10365;SDS011;5229;41.820;23.490;2022-12-10T08:19:10;1.43;;;1.10;;
10365;SDS011;5229;41.820;23.490;2022-12-10T08:21:37;0.97;;;0.70;;
10365;SDS011;5229;41.820;23.490;2022-12-10T08:24:04;1.80;;;1.47;;
10365;SDS011;5229;41.820;23.490;2022-12-10T08:26:32;2.13;;;1.50;;
10365;SDS011;5229;41.820;23.490;2022-12-10T08:28:59;1.27;;;1.17;;
10365;SDS011;5229;41.820;23.490;2022-12-10T08:31:27;1.17;;;1.07;;
10365;SDS011;5229;41.820;23.490;2022-12-10T08:33:54;2.80;;;1.23;;
10365;SDS011;5229;41.820;23.490;2022-12-10T08:36:23;0.80;;;0.80;;
10365;SDS011;5229;41.820;23.490;2022-12-10T08:38:49;1.47;;;0.87;;
10365;SDS011;5229;41.820;23.490;2022-12-10T08:41:17;1.50;;;1.40;;
10365;SDS011;5229;41.820;23.490;2022-12-10T08:43:45;6.77;;;4.13;;
10365;SDS011;5229;41.820;23.490;2022-12-10T08:46:13;22.87;;;15.43;;
10365;SDS011;5229;41.820;23.490;2022-12-10T08:48:40;44.07;;;29.40;;
10365;SDS011;5229;41.820;23.490;2022-12-10T08:51:08;49.77;;;34.93;;
10365;SDS011;5229;41.820;23.490;2022-12-10T08:53:38;61.67;;;39.73;;
10365;SDS011;5229;41.820;23.490;2022-12-10T08:56:05;60.80;;;41.03;;
10365;SDS011;5229;41.820;23.490;2022-12-10T08:58:32;56.50;;;38.97;;
10365;SDS011;5229;41.820;23.490;2022-12-10T09:00:59;51.37;;;32.20;;
10365;SDS011;5229;41.820;23.490;2022-12-10T09:03:26;38.83;;;25.77;;
10365;SDS011;5229;41.820;23.490;2022-12-10T09:05:53;31.10;;;19.27;;
10365;SDS011;5229;41.820;23.490;2022-12-10T09:08:20;31.07;;;18.97;;
10365;SDS011;5229;41.820;23.490;2022-12-10T09:10:48;29.43;;;17.17;;
10365;SDS011;5229;41.820;23.490;2022-12-10T09:13:15;26.13;;;16.73;;
10365;SDS011;5229;41.820;23.490;2022-12-10T09:15:48;19.97;;;12.30;;
10365;SDS011;5229;41.820;23.490;2022-12-10T09:18:16;11.73;;;6.80;;
10365;SDS011;5229;41.820;23.490;2022-12-10T09:20:42;9.40;;;7.20;;
10365;SDS011;5229;41.820;23.490;2022-12-10T09:23:09;9.70;;;7.60;;
10365;SDS011;5229;41.820;23.490;2022-12-10T09:25:36;12.27;;;6.57;;
10365;SDS011;5229;41.820;23.490;2022-12-10T09:28:04;11.47;;;8.20;;
10365;SDS011;5229;41.820;23.490;2022-12-10T09:30:31;17.17;;;10.20;;
10365;SDS011;5229;41.820;23.490;2022-12-10T09:32:58;7.03;;;6.20;;
10365;SDS011;5229;41.820;23.490;2022-12-10T09:35:25;7.87;;;5.70;;
10365;SDS011;5229;41.820;23.490;2022-12-10T09:37:52;6.80;;;5.50;;
10365;SDS011;5229;41.820;23.490;2022-12-10T09:40:21;8.40;;;6.70;;
10365;SDS011;5229;41.820;23.490;2022-12-10T09:42:56;7.97;;;5.47;;
10365;SDS011;5229;41.820;23.490;2022-12-10T09:45:35;7.20;;;6.30;;
10365;SDS011;5229;41.820;23.490;2022-12-10T09:48:11;13.83;;;9.50;;
10365;SDS011;5229;41.820;23.490;2022-12-10T09:50:47;8.87;;;6.47;;
10365;SDS011;5229;41.820;23.490;2022-12-10T09:53:20;6.07;;;5.47;;
10365;SDS011;5229;41.820;23.490;2022-12-10T09:55:48;5.27;;;4.10;;
10365;SDS011;5229;41.820;23.490;2022-12-10T09:58:17;4.37;;;3.83;;
10365;SDS011;5229;41.820;23.490;2022-12-10T10:00:47;4.87;;;3.90;;
10365;SDS011;5229;41.820;23.490;2022-12-10T10:03:18;5.13;;;3.70;;
10365;SDS011;5229;41.820;23.490;2022-12-10T10:05:46;5.07;;;4.23;;
10365;SDS011;5229;41.820;23.490;2022-12-10T10:08:17;3.67;;;3.10;;
10365;SDS011;5229;41.820;23.490;2022-12-10T10:10:50;4.67;;;3.77;;
10365;SDS011;5229;41.820;23.490;2022-12-10T10:13:19;5.77;;;3.97;;
10365;SDS011;5229;41.820;23.490;2022-12-10T10:15:57;4.23;;;3.77;;
10365;SDS011;5229;41.820;23.490;2022-12-10T10:18:41;4.77;;;2.93;;
10365;SDS011;5229;41.820;23.490;2022-12-10T10:21:13;4.37;;;3.30;;
10365;SDS011;5229;41.820;23.490;2022-12-10T10:23:44;4.23;;;3.83;;
10365;SDS011;5229;41.820;23.490;2022-12-10T10:26:11;5.07;;;3.40;;
10365;SDS011;5229;41.820;23.490;2022-12-10T10:28:38;3.50;;;3.20;;
10365;SDS011;5229;41.820;23.490;2022-12-10T10:31:11;4.13;;;3.63;;
10365;SDS011;5229;41.820;23.490;2022-12-10T10:33:47;3.87;;;3.03;;
10365;SDS011;5229;41.820;23.490;2022-12-10T10:36:15;5.47;;;3.37;;
10365;SDS011;5229;41.820;23.490;2022-12-10T10:38:47;3.70;;;3.30;;
10365;SDS011;5229;41.820;23.490;2022-12-10T10:41:14;5.10;;;3.17;;
10365;SDS011;5229;41.820;23.490;2022-12-10T10:43:41;5.30;;;3.30;;
10365;SDS011;5229;41.820;23.490;2022-12-10T10:46:12;4.17;;;3.20;;
10365;SDS011;5229;41.820;23.490;2022-12-10T10:48:41;4.30;;;3.57;;
10365;SDS011;5229;41.820;23.490;2022-12-10T11:03:45;3.43;;;2.93;;
10365;SDS011;5229;41.820;23.490;2022-12-10T11:06:14;3.70;;;2.63;;
10365;SDS011;5229;41.820;23.490;2022-12-10T11:08:41;3.10;;;2.80;;
10365;SDS011;5229;41.820;23.490;2022-12-10T11:11:11;6.03;;;2.83;;
10365;SDS011;5229;41.820;23.490;2022-12-10T11:13:43;3.97;;;2.80;;
10365;SDS011;5229;41.820;23.490;2022-12-10T11:16:11;3.47;;;2.70;;
10365;SDS011;5229;41.820;23.490;2022-12-10T11:18:51;3.73;;;2.90;;
10365;SDS011;5229;41.820;23.490;2022-12-10T11:21:22;4.47;;;3.30;;
10365;SDS011;5229;41.820;23.490;2022-12-10T11:23:51;3.70;;;3.37;;
10365;SDS011;5229;41.820;23.490;2022-12-10T11:26:38;11.83;;;6.87;;
10365;SDS011;5229;41.820;23.490;2022-12-10T11:29:37;6.27;;;5.40;;
10365;SDS011;5229;41.820;23.490;2022-12-10T11:35:08;6.77;;;4.97;;
10365;SDS011;5229;41.820;23.490;2022-12-10T11:37:39;7.03;;;5.10;;
10365;SDS011;5229;41.820;23.490;2022-12-10T11:43:13;6.40;;;4.33;;
10365;SDS011;5229;41.820;23.490;2022-12-10T11:45:56;6.47;;;4.90;;
10365;SDS011;5229;41.820;23.490;2022-12-10T11:48:39;7.57;;;4.80;;
10365;SDS011;5229;41.820;23.490;2022-12-10T11:51:19;5.60;;;4.47;;
10365;SDS011;5229;41.820;23.490;2022-12-10T11:53:59;5.97;;;4.40;;
10365;SDS011;5229;41.820;23.490;2022-12-10T11:56:34;7.30;;;4.67;;
10365;SDS011;5229;41.820;23.490;2022-12-10T11:59:06;5.83;;;4.47;;
10365;SDS011;5229;41.820;23.490;2022-12-10T12:01:46;6.53;;;3.83;;
10365;SDS011;5229;41.820;23.490;2022-12-10T12:04:30;9.47;;;4.00;;
10365;SDS011;5229;41.820;23.490;2022-12-10T12:07:17;7.03;;;3.73;;
10365;SDS011;5229;41.820;23.490;2022-12-10T12:10:15;4.40;;;3.90;;
10365;SDS011;5229;41.820;23.490;2022-12-10T12:12:55;5.53;;;3.70;;
10365;SDS011;5229;41.820;23.490;2022-12-10T12:15:26;7.40;;;5.27;;
10365;SDS011;5229;41.820;23.490;2022-12-10T12:17:58;4.50;;;3.77;;
10365;SDS011;5229;41.820;23.490;2022-12-10T12:20:29;3.90;;;3.50;;
10365;SDS011;5229;41.820;23.490;2022-12-10T12:23:02;5.87;;;3.87;;
10365;SDS011;5229;41.820;23.490;2022-12-10T12:25:38;6.00;;;4.00;;
10365;SDS011;5229;41.820;23.490;2022-12-10T12:28:10;5.13;;;3.33;;
10365;SDS011;5229;41.820;23.490;2022-12-10T12:30:41;3.47;;;3.13;;
10365;SDS011;5229;41.820;23.490;2022-12-10T12:33:13;4.13;;;3.67;;
10365;SDS011;5229;41.820;23.490;2022-12-10T12:35:48;4.17;;;3.50;;
10365;SDS011;5229;41.820;23.490;2022-12-10T12:38:23;5.17;;;3.13;;
10365;SDS011;5229;41.820;23.490;2022-12-10T12:40:56;7.30;;;2.97;;
10365;SDS011;5229;41.820;23.490;2022-12-10T12:43:32;5.87;;;3.00;;
10365;SDS011;5229;41.820;23.490;2022-12-10T12:46:09;4.43;;;2.70;;
10365;SDS011;5229;41.820;23.490;2022-12-10T12:48:41;5.07;;;2.80;;
10365;SDS011;5229;41.820;23.490;2022-12-10T12:51:17;3.93;;;3.37;;
10365;SDS011;5229;41.820;23.490;2022-12-10T12:53:54;3.93;;;3.10;;
10365;SDS011;5229;41.820;23.490;2022-12-10T12:56:23;4.80;;;3.50;;
10365;SDS011;5229;41.820;23.490;2022-12-10T12:59:03;5.00;;;3.40;;
10365;SDS011;5229;41.820;23.490;2022-12-10T13:01:36;5.63;;;3.93;;
10365;SDS011;5229;41.820;23.490;2022-12-10T13:04:08;7.43;;;6.00;;
10365;SDS011;5229;41.820;23.490;2022-12-10T13:06:37;6.17;;;3.47;;
10365;SDS011;5229;41.820;23.490;2022-12-10T13:09:23;6.50;;;3.30;;
10365;SDS011;5229;41.820;23.490;2022-12-10T13:15:01;4.97;;;2.93;;
10365;SDS011;5229;41.820;23.490;2022-12-10T13:17:59;4.67;;;3.67;;
10365;SDS011;5229;41.820;23.490;2022-12-10T13:20:32;3.43;;;3.13;;
10365;SDS011;5229;41.820;23.490;2022-12-10T13:23:01;3.57;;;3.17;;
10365;SDS011;5229;41.820;23.490;2022-12-10T13:28:29;4.00;;;3.43;;
10365;SDS011;5229;41.820;23.490;2022-12-10T13:31:07;5.43;;;4.13;;
10365;SDS011;5229;41.820;23.490;2022-12-10T13:33:46;9.37;;;8.00;;
10365;SDS011;5229;41.820;23.490;2022-12-10T13:36:19;7.00;;;5.77;;
10365;SDS011;5229;41.820;23.490;2022-12-10T13:38:55;7.23;;;3.43;;
10365;SDS011;5229;41.820;23.490;2022-12-10T13:41:40;4.37;;;3.20;;
10365;SDS011;5229;41.820;23.490;2022-12-10T13:44:37;4.77;;;3.30;;
10365;SDS011;5229;41.820;23.490;2022-12-10T13:47:24;4.43;;;3.60;;
10365;SDS011;5229;41.820;23.490;2022-12-10T13:49:53;4.07;;;2.47;;
10365;SDS011;5229;41.820;23.490;2022-12-10T13:52:23;3.80;;;3.07;;
10365;SDS011;5229;41.820;23.490;2022-12-10T13:55:02;3.80;;;2.97;;
10365;SDS011;5229;41.820;23.490;2022-12-10T13:57:55;3.20;;;2.90;;
10365;SDS011;5229;41.820;23.490;2022-12-10T14:00:31;4.80;;;2.53;;
10365;SDS011;5229;41.820;23.490;2022-12-10T14:03:09;2.17;;;1.80;;
10365;SDS011;5229;41.820;23.490;2022-12-10T14:05:55;2.23;;;2.03;;
10365;SDS011;5229;41.820;23.490;2022-12-10T14:08:35;12.97;;;9.13;;
10365;SDS011;5229;41.820;23.490;2022-12-10T14:11:06;11.83;;;9.87;;
10365;SDS011;5229;41.820;23.490;2022-12-10T14:13:44;4.07;;;2.67;;
10365;SDS011;5229;41.820;23.490;2022-12-10T14:16:14;2.40;;;2.20;;
10365;SDS011;5229;41.820;23.490;2022-12-10T14:18:46;2.20;;;1.97;;
10365;SDS011;5229;41.820;23.490;2022-12-10T14:21:19;3.33;;;2.50;;
10365;SDS011;5229;41.820;23.490;2022-12-10T14:23:49;2.77;;;2.03;;
10365;SDS011;5229;41.820;23.490;2022-12-10T14:26:18;4.03;;;1.90;;
10365;SDS011;5229;41.820;23.490;2022-12-10T14:28:48;2.13;;;1.67;;
10365;SDS011;5229;41.820;23.490;2022-12-10T14:31:17;4.33;;;2.10;;
10365;SDS011;5229;41.820;23.490;2022-12-10T14:33:47;4.10;;;1.77;;
10365;SDS011;5229;41.820;23.490;2022-12-10T14:36:21;2.10;;;1.83;;
10365;SDS011;5229;41.820;23.490;2022-12-10T14:38:53;2.40;;;1.50;;
10365;SDS011;5229;41.820;23.490;2022-12-10T14:41:21;1.97;;;1.63;;
10365;SDS011;5229;41.820;23.490;2022-12-10T14:43:51;2.20;;;1.40;;
10365;SDS011;5229;41.820;23.490;2022-12-10T14:46:19;2.23;;;1.70;;
10365;SDS011;5229;41.820;23.490;2022-12-10T14:48:49;1.77;;;1.50;;
10365;SDS011;5229;41.820;23.490;2022-12-10T14:51:18;3.03;;;1.80;;
10365;SDS011;5229;41.820;23.490;2022-12-10T14:53:46;2.30;;;1.80;;
10365;SDS011;5229;41.820;23.490;2022-12-10T14:56:16;3.47;;;1.40;;
10365;SDS011;5229;41.820;23.490;2022-12-10T14:58:49;1.47;;;1.37;;
10365;SDS011;5229;41.820;23.490;2022-12-10T15:01:23;5.07;;;2.00;;
10365;SDS011;5229;41.820;23.490;2022-12-10T15:03:55;3.23;;;2.30;;
10365;SDS011;5229;41.820;23.490;2022-12-10T15:06:25;3.53;;;2.90;;
10365;SDS011;5229;41.820;23.490;2022-12-10T15:08:53;2.70;;;2.43;;
10365;SDS011;5229;41.820;23.490;2022-12-10T15:11:22;1.87;;;1.70;;
10365;SDS011;5229;41.820;23.490;2022-12-10T15:13:53;1.90;;;1.70;;
10365;SDS011;5229;41.820;23.490;2022-12-10T15:16:28;3.17;;;1.80;;
10365;SDS011;5229;41.820;23.490;2022-12-10T15:19:07;1.93;;;1.63;;
10365;SDS011;5229;41.820;23.490;2022-12-10T15:21:43;2.77;;;1.67;;
10365;SDS011;5229;41.820;23.490;2022-12-10T15:24:14;2.67;;;1.83;;
10365;SDS011;5229;41.820;23.490;2022-12-10T15:26:43;2.20;;;2.00;;
10365;SDS011;5229;41.820;23.490;2022-12-10T15:29:27;2.37;;;2.00;;
10365;SDS011;5229;41.820;23.490;2022-12-10T15:31:57;3.93;;;2.07;;